Time;durP1;ratioP1;P1;durP2;ratioP2;P2;SDS_P1;SDS_P2;PMS_P1;PMS_P2;Temp;Humidity;BMP_temperature;BMP_pressure;BME280_temperature;BME280_humidity;BME280_pressure;Samples;Min_cycle;Max_cycle;Signal;HPM_P1;HPM_P2
2023/10/21 00:01:36;;;;;;;1.67;1.23;;;16.40;96.30;;;16.50;59.15;96127.88;4966691;28;114538;-83
2023/10/21 00:04:03;;;;;;;2.07;1.20;;;16.20;96.20;;;16.50;59.35;96143.81;4979259;28;113136;-81
2023/10/21 00:06:29;;;;;;;2.40;1.10;;;16.20;96.20;;;16.50;59.04;96139.03;4964686;28;123061;-85
2023/10/21 00:08:58;;;;;;;1.40;1.00;;;16.20;96.10;;;16.50;59.16;96150.19;4956576;28;124337;-83
2023/10/21 00:11:25;;;;;;;1.77;1.00;;;16.20;96.00;;;16.51;59.01;96162.91;4958263;28;115799;-83
2023/10/21 00:13:51;;;;;;;1.63;1.10;;;16.60;96.20;;;16.53;58.79;96162.50;4967486;28;114187;-84
2023/10/21 00:16:18;;;;;;;1.17;0.90;;;16.30;96.00;;;16.52;58.59;96153.34;4959048;28;124225;-80
2023/10/21 00:18:47;;;;;;;1.93;1.10;;;16.30;95.90;;;16.51;58.72;96153.75;4966852;28;123923;-85
2023/10/21 00:21:13;;;;;;;1.37;1.10;;;16.20;95.90;;;16.52;58.58;96177.63;4967252;28;114267;-85
2023/10/21 00:23:40;;;;;;;1.63;1.00;;;16.20;95.80;;;16.50;58.44;96174.50;4967455;28;114067;-82
2023/10/21 00:26:07;;;;;;;1.57;1.10;;;16.20;95.80;;;16.49;58.53;96175.69;4967366;28;124362;-82
2023/10/21 00:28:33;;;;;;;2.10;0.93;;;16.20;95.70;;;16.47;58.53;96178.09;4962947;28;123739;-84
2023/10/21 00:31:04;;;;;;;1.50;1.03;;;16.20;95.70;;;16.45;58.25;96174.94;4964178;28;114321;-84
2023/10/21 00:33:30;;;;;;;1.30;0.90;;;16.10;95.60;;;16.44;58.31;96185.31;4965600;28;114139;-84
2023/10/21 00:36:00;;;;;;;1.30;1.00;;;16.10;95.70;;;16.44;58.39;96178.91;4958979;28;124163;-82
2023/10/21 00:38:26;;;;;;;1.27;1.00;;;16.10;95.70;;;16.45;58.39;96186.09;4959602;28;124079;-80
2023/10/21 00:40:55;;;;;;;1.57;0.90;;;17.60;96.70;;;16.44;58.54;96193.66;4966607;28;115238;-83
2023/10/21 00:43:42;;;;;;;1.60;1.07;;;16.10;95.80;;;16.43;58.55;96177.34;4955141;28;114002;-85
2023/10/21 00:46:16;;;;;;;1.10;0.80;;;16.10;96.00;;;16.44;58.58;96184.50;4953639;28;124252;-84
2023/10/21 00:48:44;;;;;;;1.30;0.73;;;16.10;95.80;;;16.45;58.69;96189.66;4976425;28;123785;-82
2023/10/21 00:51:11;;;;;;;1.40;1.00;;;16.10;95.80;;;16.46;58.52;96191.22;4957009;28;114226;-83
2023/10/21 00:53:38;;;;;;;1.10;0.97;;;16.20;95.80;;;16.47;58.40;96198.41;4960029;28;114037;-84
2023/10/21 00:56:06;;;;;;;1.27;0.87;;;16.20;95.70;;;16.49;58.48;96209.91;4958715;28;123963;-83
2023/10/21 00:58:33;;;;;;;1.50;0.90;;;16.40;96.10;;;16.49;58.40;96209.13;4970022;28;123865;-84
2023/10/21 01:01:02;;;;;;;1.10;0.80;;;16.30;95.80;;;16.49;58.31;96209.13;4957518;28;115281;-81
2023/10/21 01:03:30;;;;;;;1.43;1.10;;;16.20;95.70;;;16.49;58.56;96209.13;4965387;28;114922;-83
2023/10/21 01:05:56;;;;;;;1.80;1.00;;;17.60;96.30;;;16.49;58.69;96223.06;4962071;28;124150;-85
2023/10/21 01:08:23;;;;;;;1.20;0.80;;;16.20;95.70;;;16.49;58.58;96221.06;4984986;28;124474;-83
2023/10/21 01:10:50;;;;;;;1.10;0.90;;;15.90;95.60;;;16.48;58.63;96225.06;4960651;28;114285;-84
2023/10/21 01:13:16;;;;;;;1.37;0.80;;;16.10;95.80;;;16.48;58.53;96235.44;4953738;28;113990;-83
2023/10/21 01:15:43;;;;;;;3.37;1.00;;;16.10;95.80;;;16.46;58.62;96238.63;4969299;28;123390;-80
2023/10/21 01:18:13;;;;;;;1.03;0.80;;;16.10;95.80;;;16.45;58.70;96241.84;4969662;28;123849;-82
2023/10/21 01:20:41;;;;;;;1.20;0.97;;;16.10;95.80;;;16.44;58.58;96243.00;4973773;28;114286;-84
2023/10/21 01:23:16;;;;;;;1.00;0.80;;;16.10;95.80;;;16.41;58.63;96253.00;4957358;28;114515;-85
2023/10/21 01:25:50;;;;;;;1.10;0.80;;;16.30;95.90;;;16.42;58.83;96256.59;4964721;28;124777;-85
2023/10/21 01:28:17;;;;;;;1.10;0.80;;;16.10;95.80;;;16.39;58.97;96260.19;4963545;28;123633;-82
2023/10/21 01:30:43;;;;;;;1.27;0.87;;;16.10;95.90;;;16.39;58.78;96266.56;4992554;28;114232;-84
2023/10/21 01:33:10;;;;;;;1.50;0.90;;;16.10;95.90;;;16.39;58.92;96271.34;4957792;28;114568;-86
2023/10/21 01:35:38;;;;;;;1.00;0.80;;;16.10;95.90;;;16.41;58.92;96271.72;4963362;28;123554;-84
2023/10/21 01:38:07;;;;;;;1.13;0.90;;;16.10;96.00;;;16.40;59.03;96284.88;4961936;28;123012;-84
2023/10/21 01:40:36;;;;;;;1.30;0.80;;;16.10;95.90;;;16.40;58.92;96289.66;4966110;28;114381;-82
2023/10/21 01:43:09;;;;;;;1.00;0.90;;;16.10;95.90;;;16.40;59.06;96290.44;4970685;28;113989;-87
2023/10/21 01:45:40;;;;;;;1.17;0.87;;;16.10;96.00;;;16.39;58.63;96291.66;4996829;28;123016;-88
2023/10/21 01:48:08;;;;;;;1.00;0.80;;;16.10;96.00;;;16.40;59.10;96298.00;4969101;28;123190;-84
2023/10/21 01:50:35;;;;;;;1.17;0.80;;;16.10;96.00;;;16.41;59.28;96302.38;4975963;28;115327;-83
2023/10/21 01:53:02;;;;;;;1.20;0.83;;;16.10;96.00;;;16.41;59.15;96302.38;4962738;28;115372;-84
2023/10/21 01:55:28;;;;;;;1.33;0.90;;;16.10;96.00;;;16.40;59.21;96314.72;4964014;28;124070;-86
2023/10/21 01:57:55;;;;;;;1.00;0.70;;;16.10;96.00;;;16.42;59.14;96309.53;4970230;28;123755;-84
2023/10/21 02:00:22;;;;;;;1.13;0.80;;;16.10;96.00;;;16.40;59.17;96326.66;4997713;28;113259;-85
2023/10/21 02:02:59;;;;;;;0.90;0.70;;;16.10;96.00;;;16.39;59.00;96327.88;4967202;28;113878;-84
2023/10/21 02:05:27;;;;;;;1.10;0.80;;;16.10;96.00;;;16.39;59.12;96330.66;4967522;28;124053;-85
2023/10/21 02:07:55;;;;;;;1.40;0.83;;;16.10;96.00;;;16.38;59.02;96345.78;4956840;28;123074;-85
2023/10/21 02:10:22;;;;;;;1.00;0.70;;;16.10;96.00;;;16.38;59.05;96331.06;4965733;28;114123;-85
2023/10/21 02:12:50;;;;;;;1.50;0.77;;;16.20;96.00;;;16.39;58.76;96349.38;4970228;28;113950;-86
2023/10/21 02:15:21;;;;;;;0.90;0.73;;;16.10;95.90;;;16.40;58.82;96337.03;4951605;28;123826;-86
2023/10/21 02:17:50;;;;;;;2.00;0.80;;;16.10;95.80;;;16.40;58.68;96348.97;4954057;28;124112;-87
2023/10/21 02:20:16;;;;;;;0.90;0.70;;;16.30;95.90;;;16.42;58.56;96368.06;4963922;28;113951;-85
2023/10/21 02:22:45;;;;;;;0.97;0.77;;;16.10;95.70;;;16.45;58.56;96375.59;4958576;28;114364;-82
2023/10/21 02:25:13;;;;;;;1.00;0.80;;;16.10;95.70;;;16.45;58.70;96383.97;4968977;28;123753;-81
2023/10/21 02:27:43;;;;;;;1.00;0.70;;;16.10;95.70;;;16.46;58.46;96391.91;4954655;28;124344;-83
2023/10/21 02:30:13;;;;;;;1.00;0.80;;;16.10;95.60;;;16.46;58.38;96405.06;4970286;28;114923;-85
2023/10/21 02:32:48;;;;;;;3.43;0.80;;;15.90;95.50;;;16.47;58.17;96409.41;4971522;28;113991;-84
2023/10/21 02:35:15;;;;;;;1.40;0.80;;;16.20;95.60;;;16.47;58.38;96401.06;4968351;28;124030;-85
2023/10/21 02:37:50;;;;;;;3.13;1.00;;;16.50;95.80;;;16.48;58.46;96402.66;4969152;28;123730;-80
2023/10/21 02:40:20;;;;;;;1.27;0.93;;;18.30;96.60;;;16.49;58.32;96415.38;4957705;28;114931;-80
2023/10/21 02:42:48;;;;;;;1.03;0.70;;;16.20;95.60;;;16.48;58.46;96414.59;4966167;28;115224;-79
2023/10/21 02:45:16;;;;;;;0.97;0.83;;;16.20;95.60;;;16.49;58.45;96426.53;4957954;28;123875;-83
2023/10/21 02:47:43;;;;;;;1.50;0.70;;;16.20;95.60;;;16.51;58.50;96418.56;4957540;28;123712;-82
2023/10/21 02:50:10;;;;;;;0.87;0.70;;;16.20;95.60;;;16.53;58.47;96416.16;4962693;28;114175;-84
2023/10/21 02:52:39;;;;;;;2.20;0.70;;;16.30;95.60;;;16.54;58.46;96429.66;4958981;28;113985;-82
2023/10/21 02:55:11;;;;;;;1.37;0.80;;;16.40;95.60;;;16.55;58.44;96436.06;4962798;28;124112;-83
2023/10/21 02:57:41;;;;;;;0.93;0.70;;;16.20;95.50;;;16.53;58.46;96430.09;4964106;28;123886;-84
2023/10/21 03:00:10;;;;;;;2.00;1.00;;;16.40;95.60;;;16.52;58.40;96440.47;4961119;28;114051;-85
2023/10/21 03:02:37;;;;;;;1.10;0.80;;;16.30;95.60;;;16.52;58.36;96453.59;4957567;28;113928;-85
2023/10/21 03:05:05;;;;;;;1.10;0.70;;;16.30;95.60;;;16.52;58.47;96459.16;4969749;28;124082;-82
2023/10/21 03:07:32;;;;;;;1.40;0.80;;;16.30;95.60;;;16.51;58.54;96452.00;4963841;28;122891;-84
2023/10/21 03:10:00;;;;;;;3.07;1.97;;;16.30;95.60;;;16.51;58.30;96458.38;4953617;28;115238;-83
2023/10/21 03:12:29;;;;;;;1.20;0.90;;;16.20;95.50;;;16.49;58.70;96465.56;4958853;28;113241;-84
2023/10/21 03:14:56;;;;;;;0.90;0.70;;;16.20;95.50;;;16.45;58.72;96470.38;4963211;28;124030;-83
2023/10/21 03:17:22;;;;;;;1.27;0.80;;;16.20;95.50;;;16.42;58.48;96469.19;4956274;28;123891;-81
2023/10/21 03:19:54;;;;;;;1.03;0.77;;;16.20;95.50;;;16.42;58.49;96477.56;4957775;28;114304;-82
2023/10/21 03:22:36;;;;;;;1.00;0.70;;;16.20;95.50;;;16.40;58.46;96474.38;4983605;28;113892;-83
2023/10/21 03:25:05;;;;;;;1.00;0.70;;;16.20;95.50;;;16.41;58.47;96481.53;4960318;28;123304;-84
2023/10/21 03:27:32;;;;;;;1.00;0.80;;;16.20;95.50;;;16.42;58.44;96474.78;4962244;28;123929;-82
2023/10/21 03:29:58;;;;;;;1.67;0.70;;;17.90;96.20;;;16.44;58.42;96479.91;4955302;28;115290;-85
2023/10/21 03:32:27;;;;;;;1.13;0.80;;;16.50;95.60;;;16.44;58.50;96486.31;4966216;28;114776;-85
2023/10/21 03:34:54;;;;;;;1.03;0.80;;;16.20;95.50;;;16.45;58.50;96492.66;4967474;28;124548;-84
2023/10/21 03:37:23;;;;;;;1.20;0.83;;;16.20;95.40;;;16.43;58.46;96484.72;4998840;28;123190;-83
2023/10/21 03:39:53;;;;;;;0.90;0.70;;;16.20;95.40;;;16.43;58.39;96495.84;4950862;28;114577;-82
2023/10/21 03:42:20;;;;;;;1.10;0.80;;;16.20;95.50;;;16.43;58.11;96495.06;4964934;28;114039;-84
2023/10/21 03:44:48;;;;;;;0.97;0.77;;;16.30;95.50;;;16.43;58.24;96489.50;4965732;28;123650;-82
2023/10/21 03:47:17;;;;;;;1.17;0.67;;;16.10;95.40;;;16.41;58.24;96497.47;4964466;28;123709;-84
2023/10/21 03:49:43;;;;;;;1.27;0.80;;;16.10;95.40;;;16.41;58.24;96503.81;4965488;28;114297;-84
2023/10/21 03:52:10;;;;;;;1.23;0.70;;;16.10;95.30;;;16.41;58.26;96503.03;4969736;28;113088;-83
2023/10/21 03:54:36;;;;;;;1.00;0.80;;;14.90;94.80;;;16.39;58.13;96517.41;4965706;28;124148;-83
2023/10/21 03:57:03;;;;;;;1.00;0.80;;;17.00;96.00;;;16.38;58.10;96521.38;4967306;28;123657;-85
2023/10/21 03:59:29;;;;;;;1.30;0.80;;;16.10;95.30;;;16.40;58.04;96518.19;4965301;28;113257;-84
2023/10/21 04:01:59;;;;;;;1.37;0.80;;;16.10;95.30;;;16.40;57.83;96535.69;4958995;28;114119;-85
2023/10/21 04:04:26;;;;;;;1.40;0.80;;;16.20;95.30;;;16.39;57.99;96531.31;4964045;28;124048;-83
2023/10/21 04:06:54;;;;;;;1.37;0.83;;;16.10;95.30;;;16.40;58.02;96534.91;4961375;28;123764;-84
2023/10/21 04:09:25;;;;;;;1.40;0.80;;;16.10;95.30;;;16.38;57.84;96532.50;4969726;28;114113;-83
2023/10/21 04:11:52;;;;;;;1.57;0.87;;;16.10;95.20;;;16.38;57.85;96538.09;4969808;28;113940;-85
2023/10/21 04:14:20;;;;;;;1.53;0.80;;;16.10;95.20;;;16.39;57.50;96544.44;4966847;28;124061;-84
2023/10/21 04:16:47;;;;;;;1.77;0.90;;;16.20;95.20;;;16.39;57.67;96528.53;4965542;28;124199;-83
2023/10/21 04:19:14;;;;;;;1.10;0.70;;;16.10;95.20;;;16.38;57.72;96531.72;4961103;28;115176;-86
2023/10/21 04:21:41;;;;;;;2.77;1.07;;;16.10;95.20;;;16.38;57.68;96542.88;4962473;28;114833;-82
2023/10/21 04:24:08;;;;;;;1.30;0.80;;;16.40;95.30;;;16.38;57.77;96532.50;4952286;28;123862;-81
2023/10/21 04:26:34;;;;;;;1.20;0.73;;;16.10;95.10;;;16.38;57.92;96542.88;4959469;28;123238;-84
2023/10/21 04:29:01;;;;;;;1.17;0.70;;;16.10;95.20;;;16.40;57.75;96552.41;4967128;28;114350;-84
2023/10/21 04:31:35;;;;;;;1.87;0.80;;;16.10;95.10;;;16.44;57.62;96555.16;4959771;28;116709;-84
2023/10/21 04:34:04;;;;;;;5.00;1.57;;;16.10;95.20;;;16.45;57.73;96567.94;4965072;28;124764;-83
2023/10/21 04:36:30;;;;;;;1.60;1.13;;;16.10;95.20;;;16.45;57.91;96571.50;4961347;28;123943;-82
2023/10/21 04:38:57;;;;;;;1.30;0.80;;;16.20;95.20;;;16.47;57.80;96571.09;4989013;28;114397;-82
2023/10/21 04:41:28;;;;;;;1.43;0.90;;;18.80;96.30;;;16.49;57.68;96579.84;4969431;28;113956;-84
2023/10/21 04:43:55;;;;;;;1.10;0.90;;;16.40;95.20;;;16.52;57.56;96588.19;4969532;28;123942;-86
2023/10/21 04:46:21;;;;;;;1.20;0.80;;;16.20;95.10;;;16.55;57.74;96592.16;4962907;28;123959;-81
2023/10/21 04:48:48;;;;;;;1.70;0.90;;;16.20;95.10;;;16.56;57.50;96594.53;4947769;28;114368;-85
2023/10/21 04:51:14;;;;;;;1.00;0.80;;;16.20;95.10;;;16.58;57.74;96591.34;4963488;28;114173;-83
2023/10/21 04:53:43;;;;;;;1.33;0.80;;;16.30;95.10;;;16.59;57.65;96589.34;4964288;28;124107;-84
2023/10/21 04:56:10;;;;;;;3.37;1.20;;;16.30;95.10;;;16.59;57.82;96587.34;4967475;28;123611;-84
2023/10/21 04:58:36;;;;;;;1.00;0.90;;;16.70;95.30;;;16.61;57.83;96584.97;4952361;28;116056;-84
2023/10/21 05:01:03;;;;;;;1.23;0.90;;;16.30;95.10;;;16.64;57.61;96598.09;4967209;28;114080;-81
2023/10/21 05:03:29;;;;;;;1.30;0.90;;;16.40;95.20;;;16.65;57.64;96602.44;4958955;28;124071;-84
2023/10/21 05:05:56;;;;;;;0.90;0.70;;;16.40;95.20;;;16.66;57.68;96606.06;4956726;28;123140;-82
2023/10/21 05:08:22;;;;;;;1.83;1.10;;;16.40;95.20;;;16.66;57.67;96612.41;4959934;28;115554;-83
2023/10/21 05:10:49;;;;;;;1.00;0.80;;;16.40;95.20;;;16.67;57.71;96627.94;4957707;28;114920;-83
2023/10/21 05:13:16;;;;;;;1.37;0.70;;;16.40;95.20;;;16.71;57.64;96617.56;4964666;28;124090;-80
2023/10/21 05:15:46;;;;;;;0.90;0.70;;;16.40;95.20;;;16.71;57.80;96628.72;4961595;28;124059;-82
2023/10/21 05:18:12;;;;;;;2.23;0.90;;;16.40;95.20;;;16.73;57.56;96637.47;4968471;28;113392;-81
2023/10/21 05:20:41;;;;;;;1.00;0.70;;;16.40;95.20;;;16.75;57.80;96637.84;4951930;28;114043;-83
2023/10/21 05:23:11;;;;;;;1.00;0.70;;;16.60;95.20;;;16.77;57.60;96652.22;4954426;28;124297;-82
2023/10/21 05:25:38;;;;;;;1.00;0.80;;;16.50;95.20;;;16.79;57.67;96651.78;4959255;28;123011;-81
2023/10/21 05:28:05;;;;;;;1.17;0.70;;;16.50;95.20;;;16.80;57.87;96658.97;4965077;28;114168;-82
2023/10/21 05:30:32;;;;;;;1.00;0.70;;;16.50;95.20;;;16.82;57.48;96666.94;4968901;28;113361;-82
2023/10/21 05:32:58;;;;;;;1.97;0.93;;;16.50;95.10;;;16.81;57.60;96671.72;4988224;28;123083;-83
2023/10/21 05:35:27;;;;;;;2.20;0.77;;;16.50;95.10;;;16.81;57.73;96679.28;4955785;28;123891;-81
2023/10/21 05:37:54;;;;;;;4.13;1.00;;;16.50;95.20;;;16.81;57.81;96693.25;4957138;28;114435;-79
2023/10/21 05:40:25;;;;;;;1.50;0.80;;;16.50;95.20;;;16.83;57.66;96696.44;4960968;28;113777;-85
2023/10/21 05:42:53;;;;;;;1.40;0.90;;;16.50;95.20;;;16.85;57.58;96705.19;4955679;28;123446;-83
2023/10/21 05:45:20;;;;;;;1.97;0.93;;;16.50;95.20;;;16.84;57.70;96704.38;4960861;28;123856;-85
2023/10/21 05:47:46;;;;;;;1.40;0.77;;;16.60;95.20;;;16.86;57.85;96717.91;4956203;28;113453;-90
2023/10/21 05:50:13;;;;;;;1.27;0.90;;;16.60;95.20;;;16.89;58.08;96717.91;4969906;28;113989;-84
2023/10/21 05:52:39;;;;;;;1.10;0.80;;;16.60;95.40;;;16.91;58.19;96715.50;4961193;28;124132;-83
2023/10/21 05:55:06;;;;;;;1.00;0.70;;;16.60;95.50;;;16.93;58.13;96717.91;4950690;28;123918;-84
2023/10/21 05:57:33;;;;;;;1.10;0.80;;;16.60;95.40;;;16.93;58.06;96737.44;4952627;28;115043;-84
2023/10/21 05:59:59;;;;;;;1.20;0.90;;;16.60;95.30;;;16.92;57.89;96738.59;4965373;28;114900;-86
2023/10/21 06:02:28;;;;;;;1.40;0.80;;;16.60;95.30;;;16.92;57.88;96750.56;4954194;28;124133;-83
2023/10/21 06:04:55;;;;;;;1.23;0.90;;;16.60;95.30;;;16.93;57.84;96756.97;4960945;28;123714;-86
2023/10/21 06:07:21;;;;;;;1.70;0.80;;;16.80;95.40;;;16.92;57.78;96763.72;4950941;28;114289;-84
2023/10/21 06:09:48;;;;;;;1.50;0.90;;;16.60;95.30;;;16.90;57.94;96757.75;4983272;28;114056;-85
2023/10/21 06:12:14;;;;;;;1.30;1.10;;;16.60;95.20;;;16.88;57.75;96765.75;4969011;28;124016;-83
2023/10/21 06:14:43;;;;;;;1.40;0.93;;;16.60;95.20;;;16.87;57.66;96778.06;4986911;28;123860;-84
2023/10/21 06:17:10;;;;;;;2.33;0.80;;;17.20;95.50;;;16.83;57.96;96774.53;4985828;28;112254;-85
2023/10/21 06:19:37;;;;;;;1.20;0.90;;;16.60;95.20;;;16.80;57.94;96780.91;4962633;28;114001;-85
2023/10/21 06:22:03;;;;;;;1.10;0.87;;;16.60;95.20;;;16.77;58.07;96788.88;4954607;28;124064;-85
2023/10/21 06:24:30;;;;;;;2.10;1.00;;;16.60;95.20;;;16.77;58.04;96791.66;4957725;28;123834;-83
2023/10/21 06:26:58;;;;;;;1.00;0.80;;;16.70;95.20;;;16.77;58.01;96791.66;4963327;28;114207;-84
2023/10/21 06:29:24;;;;;;;1.57;0.90;;;16.60;95.30;;;16.80;58.06;96795.66;4949292;28;114474;-85
2023/10/21 06:31:52;;;;;;;1.35;0.90;;;16.60;95.30;;;16.85;57.98;96802.81;4979394;28;123844;-85
2023/10/21 06:34:30;;;;;;;1.20;1.10;;;16.60;95.30;;;16.88;57.90;96807.56;4948972;28;124588;-86
2023/10/21 06:36:57;;;;;;;1.47;1.00;;;17.30;95.60;;;16.90;57.87;96803.19;4994853;28;114478;-84
2023/10/21 06:39:23;;;;;;;1.13;0.90;;;16.60;95.30;;;16.90;57.78;96805.97;4957917;28;113936;-84
2023/10/21 06:41:50;;;;;;;1.67;0.90;;;16.60;95.20;;;16.88;57.81;96815.94;4958778;28;124129;-83
2023/10/21 06:44:19;;;;;;;1.30;0.90;;;16.60;95.20;;;16.85;57.67;96823.13;4949749;28;123425;-85
2023/10/21 06:46:46;;;;;;;1.57;0.90;;;16.50;95.20;;;16.81;57.82;96818.75;4968287;28;115001;-84
2023/10/21 06:49:13;;;;;;;1.20;1.00;;;16.50;95.20;;;16.77;57.88;96830.72;4967885;28;115070;-85
2023/10/21 06:51:42;;;;;;;4.03;1.47;;;16.50;95.20;;;16.73;57.93;96835.44;4955660;28;124189;-85
2023/10/21 06:54:09;;;;;;;1.17;0.90;;;16.50;95.20;;;16.70;57.70;96850.19;4963385;28;124341;-83
2023/10/21 06:56:37;;;;;;;1.63;0.80;;;15.70;94.80;;;16.67;58.01;96847.44;4951841;28;114426;-85
2023/10/21 06:59:06;;;;;;;2.03;1.00;;;16.40;95.20;;;16.67;58.07;96853.78;4949220;28;114017;-86
2023/10/21 07:01:34;;;;;;;3.30;0.90;;;16.40;95.20;;;16.69;57.96;96865.34;4956690;28;123317;-85
2023/10/21 07:04:04;;;;;;;1.20;0.90;;;16.40;95.20;;;16.73;57.97;96863.34;4942369;28;122994;-84
2023/10/21 07:06:32;;;;;;;1.43;1.00;;;16.40;95.20;;;16.78;57.63;96868.53;4960367;28;114090;-84
2023/10/21 07:08:59;;;;;;;1.70;0.90;;;16.50;95.20;;;16.81;57.62;96875.31;4958742;28;114126;-84
2023/10/21 07:11:31;;;;;;;1.30;1.00;;;16.40;95.20;;;16.83;57.56;96870.13;4953380;28;124631;-83
2023/10/21 07:13:58;;;;;;;1.83;1.00;;;16.50;95.20;;;16.86;57.31;96879.69;4965967;28;124834;-83
2023/10/21 07:16:24;;;;;;;1.30;1.00;;;16.50;95.10;;;16.91;57.15;96888.44;4971508;28;115060;-84
2023/10/21 07:18:53;;;;;;;2.00;0.97;;;16.50;95.10;;;16.94;57.10;96898.00;4967126;28;114310;-84
2023/10/21 07:21:22;;;;;;;1.20;0.90;;;16.50;95.10;;;17.00;57.05;96890.81;4967153;28;123851;-84
2023/10/21 07:23:51;;;;;;;1.10;0.90;;;16.60;95.10;;;17.05;56.98;96895.19;4969751;28;124317;-83
2023/10/21 07:26:19;;;;;;;1.10;0.90;;;16.60;95.00;;;17.09;56.80;96882.06;4958421;28;114236;-84
2023/10/21 07:28:45;;;;;;;1.73;1.00;;;16.60;94.90;;;17.12;56.53;96890.41;4964858;28;113069;-84
2023/10/21 07:31:12;;;;;;;1.10;0.80;;;16.70;94.80;;;17.17;56.61;96895.56;4948436;28;124301;-82
2023/10/21 07:33:38;;;;;;;1.00;0.80;;;16.80;94.80;;;17.25;56.17;96901.13;4956246;28;123915;-84
2023/10/21 07:36:10;;;;;;;1.40;1.10;;;16.80;94.70;;;17.33;55.84;96905.47;4961509;28;115305;-83
2023/10/21 07:38:38;;;;;;;1.63;1.10;;;16.90;94.60;;;17.39;55.61;96917.84;4963719;28;114706;-84
2023/10/21 07:41:12;;;;;;;2.70;1.00;;;16.90;94.40;;;17.46;54.87;96934.56;4964061;28;122307;-82
2023/10/21 07:43:41;;;;;;;1.30;1.00;;;17.00;94.20;;;17.52;55.12;96937.75;4963604;28;123351;-85
2023/10/21 07:46:08;;;;;;;1.60;1.00;;;17.00;94.10;;;17.59;54.98;96944.09;4964771;28;114345;-85
2023/10/21 07:48:34;;;;;;;1.90;1.10;;;17.10;94.10;;;17.69;54.73;96938.88;4960632;28;114450;-84
2023/10/21 07:51:01;;;;;;;2.30;1.30;;;17.20;94.10;;;17.77;54.56;96944.03;4958745;28;123968;-83
2023/10/21 07:53:27;;;;;;;5.33;1.00;;;17.70;94.10;;;17.84;54.28;96949.63;4958158;28;125223;-80
2023/10/21 07:55:54;;;;;;;1.00;0.80;;;17.30;93.70;;;17.87;53.75;96959.19;4954940;28;114341;-84
2023/10/21 07:58:20;;;;;;;1.10;0.90;;;17.40;93.40;;;17.86;53.68;96957.56;4966197;28;113922;-83
2023/10/21 08:00:47;;;;;;;1.50;0.93;;;17.40;93.30;;;17.89;53.46;96965.13;4956296;28;124815;-82
2023/10/21 08:03:14;;;;;;;2.33;0.90;;;17.50;93.10;;;17.93;53.17;96977.09;4962683;28;122962;-83
2023/10/21 08:05:42;;;;;;;1.50;0.87;;;17.50;93.00;;;17.95;52.91;96977.50;4962411;28;114295;-83
2023/10/21 08:08:08;;;;;;;1.53;0.90;;;17.50;92.80;;;17.97;52.87;96968.69;4951452;28;113722;-84
2023/10/21 08:10:35;;;;;;;1.57;0.90;;;17.50;92.70;;;18.02;52.64;96985.03;4948093;28;124286;-82
2023/10/21 08:13:04;;;;;;;1.30;0.80;;;17.60;92.60;;;18.05;52.64;96987.84;4961781;28;123947;-82
2023/10/21 08:15:31;;;;;;;1.60;1.00;;;17.60;92.50;;;18.08;52.09;96987.03;4957337;28;113754;-82
2023/10/21 08:17:58;;;;;;;0.90;0.70;;;17.60;92.30;;;18.11;51.73;96985.41;4968005;28;114057;-82
2023/10/21 08:20:27;;;;;;;1.00;0.70;;;17.70;92.10;;;18.13;51.63;96987.78;4964006;28;123716;-83
2023/10/21 08:22:56;;;;;;;1.63;0.90;;;17.70;91.90;;;18.16;51.49;97000.94;4994330;28;123887;-81
2023/10/21 08:25:24;;;;;;;1.20;0.83;;;17.70;91.90;;;18.18;51.00;96998.56;4964846;28;116488;-81
2023/10/21 08:27:50;;;;;;;1.43;0.80;;;17.80;91.50;;;18.17;50.21;97011.72;4979054;28;114925;-82
2023/10/21 08:30:17;;;;;;;2.03;0.70;;;17.80;91.00;;;18.13;50.18;97010.16;4947012;28;124547;-83
2023/10/21 08:32:44;;;;;;;1.30;0.90;;;17.70;90.80;;;18.11;50.18;97007.78;4957000;28;124221;-81
2023/10/21 08:35:10;;;;;;;1.93;0.83;;;17.70;90.80;;;18.10;50.23;97001.38;4965678;28;114317;-81
2023/10/21 08:37:37;;;;;;;2.33;0.80;;;17.80;90.90;;;18.13;49.98;97012.94;4967467;28;113180;-82
2023/10/21 08:40:08;;;;;;;1.27;0.80;;;17.80;90.60;;;18.14;49.65;97028.53;4962737;28;123692;-83
2023/10/21 08:42:37;;;;;;;1.50;0.80;;;17.80;90.50;;;18.13;49.70;97030.50;4946326;28;125201;-84
2023/10/21 08:45:07;;;;;;;1.40;0.90;;;17.80;90.50;;;18.15;49.89;97030.13;4985272;28;114241;-83
2023/10/21 08:47:36;;;;;;;1.73;0.90;;;17.80;90.50;;;18.17;49.96;97033.31;4952654;28;113702;-84
2023/10/21 08:50:07;;;;;;;1.87;1.13;;;17.80;90.40;;;18.19;49.95;97036.47;4964401;28;124191;-81
2023/10/21 08:52:36;;;;;;;1.20;0.90;;;17.90;90.50;;;18.21;49.72;97034.88;4966597;28;124008;-82
2023/10/21 08:55:06;;;;;;;1.80;0.93;;;17.90;90.40;;;18.23;49.63;97049.22;4961887;28;114291;-82
2023/10/21 08:57:33;;;;;;;2.00;1.00;;;17.90;90.20;;;18.23;48.94;97051.25;4975670;28;113992;-82
2023/10/21 09:00:05;;;;;;;1.53;0.90;;;18.00;89.70;;;18.20;49.06;97052.84;4939665;28;123437;-82
2023/10/21 09:02:32;;;;;;;1.60;0.80;;;18.00;89.70;;;18.19;49.23;97054.06;4955459;28;123861;-84
2023/10/21 09:04:59;;;;;;;1.10;0.73;;;17.90;89.60;;;18.19;48.66;97062.44;4957620;28;114369;-82
2023/10/21 09:07:47;;;;;;;2.10;0.80;;;17.90;89.00;;;18.17;48.65;97061.25;4945191;28;113090;-83
2023/10/21 09:10:15;;;;;;;1.00;0.70;;;17.90;88.80;;;18.19;48.93;97076.44;4960870;28;126445;-80
2023/10/21 09:12:42;;;;;;;4.53;1.07;;;17.90;89.10;;;18.21;48.69;97065.63;4969979;28;123831;-82
2023/10/21 09:15:09;;;;;;;2.40;0.87;;;17.90;89.00;;;18.23;48.75;97071.59;4982036;28;115926;-82
2023/10/21 09:17:39;;;;;;;1.37;0.80;;;17.90;88.80;;;18.23;48.62;97076.41;4965880;28;114217;-82
2023/10/21 09:20:11;;;;;;;1.83;1.17;;;18.00;88.80;;;18.22;48.48;97086.78;4967628;28;124322;-83
2023/10/21 09:22:42;;;;;;;1.73;0.97;;;18.00;88.50;;;18.23;48.54;97098.75;4971955;28;124298;-83
2023/10/21 09:25:15;;;;;;;1.70;1.10;;;18.00;88.40;;;18.26;48.51;97097.94;4966851;28;114724;-82
2023/10/21 09:27:53;;;;;;;1.93;1.23;;;18.00;88.60;;;18.29;48.60;97091.53;4980037;28;114527;-83
2023/10/21 09:30:28;;;;;;;2.30;0.90;;;20.60;90.50;;;18.36;48.43;97104.72;4966429;28;124736;-83
2023/10/21 09:33:07;;;;;;;2.30;1.00;;;18.00;88.70;;;18.40;48.16;97099.88;4951004;28;123804;-82
2023/10/21 09:35:38;;;;;;;3.57;1.00;;;18.10;88.40;;;18.44;48.55;97100.69;4966802;28;114290;-82
2023/10/21 09:38:39;;;;;;;2.43;1.03;;;18.10;88.70;;;18.51;48.23;97104.25;4966232;28;113559;-83
2023/10/21 09:41:16;;;;;;;1.90;0.90;;;18.20;88.40;;;18.58;48.11;97113.78;4952815;28;123912;-82
2023/10/21 09:43:43;;;;;;;2.30;0.90;;;18.20;88.10;;;18.57;47.32;97095.44;4960628;28;122791;-82
2023/10/21 09:46:14;;;;;;;1.60;0.90;;;18.20;87.10;;;18.57;47.42;97098.22;4981464;28;113306;-83
2023/10/21 09:48:45;;;;;;;3.10;1.17;;;18.20;86.90;;;18.61;47.19;97105.38;4969989;28;113818;-83
2023/10/21 09:51:13;;;;;;;1.83;0.90;;;18.20;86.70;;;18.64;47.21;97098.97;4955373;28;125640;-83
2023/10/21 09:53:50;;;;;;;1.00;0.70;;;18.30;86.90;;;18.66;47.53;97104.97;4964123;28;123487;-82
2023/10/21 09:56:17;;;;;;;1.60;0.90;;;18.30;86.80;;;18.68;47.02;97108.16;4962307;28;114348;-83
2023/10/21 09:58:45;;;;;;;2.23;0.80;;;18.40;86.20;;;18.68;46.74;97110.94;4960859;28;113876;-83
2023/10/21 10:01:12;;;;;;;1.80;0.90;;;18.40;86.10;;;18.71;46.66;97109.34;4948689;28;124554;-83
2023/10/21 10:03:41;;;;;;;1.97;1.30;;;18.40;85.90;;;18.75;46.73;97118.53;4965295;28;123821;-83
2023/10/21 10:06:10;;;;;;;1.93;1.30;;;18.40;85.90;;;18.80;46.76;97109.69;4967625;28;116541;-82
2023/10/21 10:08:36;;;;;;;1.40;0.93;;;18.50;85.80;;;18.84;46.20;97110.50;4984241;28;113781;-83
2023/10/21 10:11:12;;;;;;;1.07;0.77;;;18.50;85.30;;;18.89;45.48;97090.47;4965420;28;124495;-84
2023/10/21 10:13:46;;;;;;;1.97;0.90;;;18.50;84.40;;;18.91;45.27;97104.88;4966431;28;123627;-81
2023/10/21 10:16:25;;;;;;;5.27;1.00;;;18.60;83.70;;;18.94;45.11;97089.22;4968040;28;113820;-83
2023/10/21 10:18:55;;;;;;;2.50;0.90;;;18.60;83.40;;;18.98;44.77;97098.41;4956777;28;114161;-81